ヌメア の空港の天気 - METARとTAF

ヌメア国際空港 ( NWWW / NOU ) - ニューカレドニア ヌメア
飛行場実況気象(Metar)
観測時間01/24 23:00 NCT (01/24 12:00 UTC)
風向・風速南南東 3m/s
視程10km以上
天気現象
なし
気温23℃
湿度78%
気圧1012hPa
METARNWWW 241200Z AUTO 15006KT CAVOK 23/19 Q1012 NOSIG
過去の天気等 Google飛行場航空写真 Wunderground天気予報

過去48時間のMETAR

飛行場予報(TAF)
発表時間: 1/24 22:00 NCT (1/24 11:00 UTC)
予報対象時間: 24日23時 NCT ~ 25日23時 NCT
風向・風速東 3m/s
視程10km以上
少しの雲 雲底高度 1680m
25日9時 NCT ~ 25日11時 NCT に徐々に
風向・風速南南東 10m/s
25日19時 NCT ~ 25日21時 NCT に徐々に
風向・風速東南東 3m/s
TAF NWWW 241100Z 2412/2512 09005KT 9999 FEW055
BECMG 2422/2424 15020KT
BECMG 2508/2510 12005KT